Time;durP1;ratioP1;P1;durP2;ratioP2;P2;SDS_P1;SDS_P2;PMS_P1;PMS_P2;Temp;Humidity;BMP_temperature;BMP_pressure;BME280_temperature;BME280_humidity;BME280_pressure;Samples;Min_cycle;Max_cycle;Signal;HPM_P1;HPM_P2
2021/05/21 00:02:04;;;;;;;6.17;4.53;;;;;;;;;;5119320;28;20851;-70
2021/05/21 00:04:31;;;;;;;5.37;4.13;;;;;;;;;;5119423;28;20516;-70
2021/05/21 00:07:02;;;;;;;6.57;4.33;;;;;;;;;;5120116;28;20480;-70
2021/05/21 00:09:38;;;;;;;5.53;4.30;;;;;;;;;;5119528;28;20490;-70
2021/05/21 00:12:11;;;;;;;10.60;4.60;;;;;;;;;;5119637;27;20458;-70
2021/05/21 00:14:41;;;;;;;7.50;5.20;;;;;;;;;;5120044;27;20446;-70
2021/05/21 00:17:11;;;;;;;6.80;5.20;;;;;;;;;;5120989;27;20458;-70
2021/05/21 00:19:40;;;;;;;4.73;4.27;;;;;;;;;;5119889;27;20456;-70
2021/05/21 00:22:11;;;;;;;6.17;4.23;;;;;;;;;;5119844;27;20537;-70
2021/05/21 00:24:39;;;;;;;7.80;4.37;;;;;;;;;;5119081;27;20442;-70
2021/05/21 00:27:10;;;;;;;6.83;4.23;;;;;;;;;;5120411;27;20496;-70
2021/05/21 00:29:37;;;;;;;6.03;4.70;;;;;;;;;;5120211;27;20492;-70
2021/05/21 00:32:05;;;;;;;6.07;5.47;;;;;;;;;;5120169;27;20472;-70
2021/05/21 00:34:32;;;;;;;6.00;4.90;;;;;;;;;;5119936;27;20451;-70
2021/05/21 00:36:59;;;;;;;6.20;5.13;;;;;;;;;;5119841;27;20482;-71
2021/05/21 00:39:27;;;;;;;7.10;5.53;;;;;;;;;;5119947;27;20549;-70
2021/05/21 00:41:54;;;;;;;8.97;4.77;;;;;;;;;;5121733;27;20457;-71
2021/05/21 00:44:21;;;;;;;7.70;5.30;;;;;;;;;;5119533;27;20491;-71
2021/05/21 00:46:49;;;;;;;6.97;5.33;;;;;;;;;;5119082;27;20858;-69
2021/05/21 00:49:18;;;;;;;5.53;4.37;;;;;;;;;;5119105;27;20486;-70
2021/05/21 00:51:45;;;;;;;8.47;5.50;;;;;;;;;;5118633;27;20524;-70
2021/05/21 00:54:16;;;;;;;8.50;4.70;;;;;;;;;;5114291;27;20570;-70
2021/05/21 00:56:46;;;;;;;6.33;4.70;;;;;;;;;;5098212;28;20462;-70
2021/05/21 00:59:17;;;;;;;7.67;5.50;;;;;;;;;;5098477;28;20547;-70
2021/05/21 01:01:52;;;;;;;7.20;5.40;;;;;;;;;;5112197;28;20496;-70
2021/05/21 01:04:19;;;;;;;7.23;5.53;;;;;;;;;;5118691;27;20544;-70
2021/05/21 01:06:46;;;;;;;8.80;5.67;;;;;;;;;;5117303;27;20882;-70
2021/05/21 01:09:16;;;;;;;6.53;5.00;;;;;;;;;;5117040;27;20490;-70
2021/05/21 01:11:44;;;;;;;7.73;6.50;;;;;;;;;;5118551;27;20857;-70
2021/05/21 01:14:11;;;;;;;8.10;5.57;;;;;;;;;;5118850;27;20478;-71
2021/05/21 01:16:38;;;;;;;7.23;6.43;;;;;;;;;;5119196;27;20583;-70
2021/05/21 01:19:06;;;;;;;10.43;5.47;;;;;;;;;;5100822;28;20597;-70
2021/05/21 01:21:35;;;;;;;7.53;6.07;;;;;;;;;;5097835;28;20558;-70
2021/05/21 01:24:02;;;;;;;8.57;5.57;;;;;;;;;;5118010;27;20846;-70
2021/05/21 01:26:31;;;;;;;6.60;5.87;;;;;;;;;;5116646;27;20569;-70
2021/05/21 01:28:58;;;;;;;9.40;6.43;;;;;;;;;;5118449;27;20490;-70
2021/05/21 01:31:26;;;;;;;8.77;6.27;;;;;;;;;;5112587;27;20460;-70
2021/05/21 01:33:55;;;;;;;8.70;5.27;;;;;;;;;;5109383;28;20869;-70
2021/05/21 01:36:23;;;;;;;11.40;7.13;;;;;;;;;;5117504;28;20513;-71
2021/05/21 01:39:05;;;;;;;8.13;6.40;;;;;;;;;;5118248;27;20721;-70
2021/05/21 01:41:32;;;;;;;9.87;6.37;;;;;;;;;;5118637;27;20543;-70
2021/05/21 01:44:00;;;;;;;10.50;6.80;;;;;;;;;;5118568;27;20455;-70
2021/05/21 01:46:27;;;;;;;8.53;6.50;;;;;;;;;;5117645;27;20462;-70
2021/05/21 01:48:54;;;;;;;9.10;6.67;;;;;;;;;;5113192;27;20491;-70
2021/05/21 01:51:21;;;;;;;11.57;7.63;;;;;;;;;;5101196;28;20460;-70
2021/05/21 01:53:48;;;;;;;9.13;7.50;;;;;;;;;;5113458;28;20467;-70
2021/05/21 01:56:16;;;;;;;11.50;7.97;;;;;;;;;;5100291;28;20930;-70
2021/05/21 01:58:43;;;;;;;11.10;7.20;;;;;;;;;;5114465;27;20464;-70
2021/05/21 02:01:10;;;;;;;9.60;7.00;;;;;;;;;;5110368;28;20456;-70
2021/05/21 02:03:37;;;;;;;12.30;8.07;;;;;;;;;;5097559;28;20452;-70
2021/05/21 02:06:08;;;;;;;10.57;8.20;;;;;;;;;;5098112;28;20452;-71
2021/05/21 02:08:35;;;;;;;15.57;8.40;;;;;;;;;;5102279;28;20579;-70
2021/05/21 02:11:02;;;;;;;10.10;7.93;;;;;;;;;;5117228;28;20450;-70
2021/05/21 02:13:31;;;;;;;11.60;7.87;;;;;;;;;;5111234;27;20448;-70
2021/05/21 02:15:58;;;;;;;11.47;7.83;;;;;;;;;;5097816;28;20502;-70
2021/05/21 02:18:25;;;;;;;10.70;8.23;;;;;;;;;;5111786;28;20462;-70
2021/05/21 02:20:52;;;;;;;11.30;8.40;;;;;;;;;;5117682;27;20486;-70
2021/05/21 02:23:19;;;;;;;11.00;7.80;;;;;;;;;;5103245;27;20501;-70
2021/05/21 02:25:47;;;;;;;11.03;8.20;;;;;;;;;;5097597;28;20491;-70
2021/05/21 02:28:15;;;;;;;10.13;7.33;;;;;;;;;;5097290;28;20491;-70
2021/05/21 02:31:19;;;;;;;9.43;7.77;;;;;;;;;;5097780;27;20491;-70
2021/05/21 02:33:47;;;;;;;10.20;7.30;;;;;;;;;;5115643;27;20471;-70
2021/05/21 02:36:14;;;;;;;11.90;7.80;;;;;;;;;;5117576;27;20545;-70
2021/05/21 02:38:41;;;;;;;11.30;8.27;;;;;;;;;;5117018;27;20724;-70
2021/05/21 02:41:08;;;;;;;12.40;8.90;;;;;;;;;;5117910;27;20462;-70
2021/05/21 02:43:35;;;;;;;12.40;7.33;;;;;;;;;;5104250;28;20455;-70
2021/05/21 02:46:02;;;;;;;8.67;7.43;;;;;;;;;;5097250;28;20460;-70
2021/05/21 02:48:29;;;;;;;11.47;7.80;;;;;;;;;;5096774;28;20491;-71
2021/05/21 02:50:57;;;;;;;8.90;7.00;;;;;;;;;;5112905;27;20459;-71
2021/05/21 02:53:24;;;;;;;13.07;7.40;;;;;;;;;;5117106;27;20480;-70
2021/05/21 02:55:51;;;;;;;12.47;7.30;;;;;;;;;;5117619;27;20882;-71
2021/05/21 02:58:19;;;;;;;12.90;8.17;;;;;;;;;;5107846;28;20503;-71
2021/05/21 03:00:46;;;;;;;10.20;7.07;;;;;;;;;;5117212;27;20881;-71
2021/05/21 03:03:13;;;;;;;9.80;7.30;;;;;;;;;;5117566;27;20475;-71
2021/05/21 03:05:40;;;;;;;7.80;6.50;;;;;;;;;;5117001;27;20455;-71
2021/05/21 03:08:09;;;;;;;7.97;7.17;;;;;;;;;;5115988;27;20557;-71
2021/05/21 03:10:36;;;;;;;10.20;7.57;;;;;;;;;;5110789;27;20486;-71
2021/05/21 03:13:03;;;;;;;9.30;7.47;;;;;;;;;;5119612;27;20489;-70
2021/05/21 03:15:33;;;;;;;12.83;7.37;;;;;;;;;;5108500;28;20818;-71
2021/05/21 03:18:00;;;;;;;9.50;6.50;;;;;;;;;;5100236;28;20451;-71
2021/05/21 03:20:27;;;;;;;8.67;6.53;;;;;;;;;;5100139;28;20522;-71
2021/05/21 03:22:57;;;;;;;8.93;6.80;;;;;;;;;;5099478;27;20444;-71
2021/05/21 03:25:25;;;;;;;9.83;8.27;;;;;;;;;;5115086;27;20925;-71
2021/05/21 03:27:52;;;;;;;10.33;7.40;;;;;;;;;;5107398;27;20443;-71
2021/05/21 03:30:19;;;;;;;8.23;6.70;;;;;;;;;;5115188;27;20951;-71
2021/05/21 03:32:46;;;;;;;7.50;6.60;;;;;;;;;;5098454;28;20887;-70
2021/05/21 03:35:13;;;;;;;10.23;6.60;;;;;;;;;;5099940;28;20492;-71
2021/05/21 03:37:40;;;;;;;9.83;6.57;;;;;;;;;;5103127;27;20462;-71
2021/05/21 03:40:07;;;;;;;7.93;6.13;;;;;;;;;;5113721;27;20809;-70
2021/05/21 03:42:35;;;;;;;8.33;6.20;;;;;;;;;;5119684;27;20545;-71
2021/05/21 03:45:04;;;;;;;8.13;5.80;;;;;;;;;;5119978;27;20897;-70
2021/05/21 03:47:33;;;;;;;8.23;6.03;;;;;;;;;;5113796;28;20459;-71
2021/05/21 03:50:00;;;;;;;8.23;6.13;;;;;;;;;;5118684;28;20486;-70
2021/05/21 03:52:27;;;;;;;7.70;5.97;;;;;;;;;;5108720;28;20460;-70
2021/05/21 03:54:54;;;;;;;9.87;7.27;;;;;;;;;;5120048;27;20455;-71
2021/05/21 03:57:21;;;;;;;11.50;6.23;;;;;;;;;;5112481;27;20557;-70
2021/05/21 03:59:50;;;;;;;8.07;5.43;;;;;;;;;;5109671;27;20517;-71
2021/05/21 04:02:17;;;;;;;7.10;5.70;;;;;;;;;;5119069;27;20454;-70
2021/05/21 04:04:44;;;;;;;9.00;5.43;;;;;;;;;;5104272;27;20483;-70
2021/05/21 04:07:11;;;;;;;6.57;4.83;;;;;;;;;;5099492;28;21172;-70
2021/05/21 04:09:38;;;;;;;6.27;5.30;;;;;;;;;;5099399;28;20495;-70
2021/05/21 04:12:06;;;;;;;10.17;5.07;;;;;;;;;;5102823;28;20883;-71
2021/05/21 04:14:33;;;;;;;6.27;5.53;;;;;;;;;;5115924;27;20452;-70
2021/05/21 04:17:07;;;;;;;8.17;5.97;;;;;;;;;;5099227;28;20560;-70
2021/05/21 04:19:35;;;;;;;8.27;6.10;;;;;;;;;;5098980;28;20467;-71
2021/05/21 04:22:02;;;;;;;7.10;5.23;;;;;;;;;;5108492;28;20466;-71
2021/05/21 04:24:29;;;;;;;7.47;5.23;;;;;;;;;;5119255;27;20855;-71
2021/05/21 04:27:15;;;;;;;6.43;5.50;;;;;;;;;;5120932;27;20459;-70
2021/05/21 04:29:42;;;;;;;7.60;5.60;;;;;;;;;;5118812;27;20519;-70
2021/05/21 04:32:10;;;;;;;7.50;5.20;;;;;;;;;;5109050;28;20456;-71
2021/05/21 04:34:37;;;;;;;7.10;5.13;;;;;;;;;;5108203;28;20550;-71
2021/05/21 04:37:05;;;;;;;8.63;5.80;;;;;;;;;;5119248;27;20940;-70
2021/05/21 04:39:32;;;;;;;6.67;4.30;;;;;;;;;;5118793;27;20482;-70
2021/05/21 04:41:59;;;;;;;7.03;5.17;;;;;;;;;;5119052;27;20721;-70
2021/05/21 04:44:27;;;;;;;8.10;5.83;;;;;;;;;;5118797;27;20451;-71
2021/05/21 04:46:54;;;;;;;5.33;4.60;;;;;;;;;;5116440;27;20451;-71
2021/05/21 04:49:34;;;;;;;6.40;4.73;;;;;;;;;;5098639;28;20484;-71
2021/05/21 04:52:02;;;;;;;4.67;4.10;;;;;;;;;;5098440;28;20446;-70
2021/05/21 04:54:29;;;;;;;6.77;5.90;;;;;;;;;;5114892;27;20447;-70
2021/05/21 04:56:56;;;;;;;6.57;4.87;;;;;;;;;;5118610;27;20563;-70
2021/05/21 04:59:23;;;;;;;5.23;4.37;;;;;;;;;;5118763;27;20486;-70
2021/05/21 05:01:51;;;;;;;5.50;4.20;;;;;;;;;;5105238;28;20460;-71
2021/05/21 05:04:18;;;;;;;5.47;4.03;;;;;;;;;;5100260;28;20448;-71
2021/05/21 05:06:46;;;;;;;6.23;4.10;;;;;;;;;;5103459;28;20459;-71
2021/05/21 05:09:15;;;;;;;7.27;4.20;;;;;;;;;;5107764;27;20560;-70
2021/05/21 05:11:42;;;;;;;5.00;3.60;;;;;;;;;;5099564;28;20459;-70
2021/05/21 05:14:10;;;;;;;9.27;4.27;;;;;;;;;;5098299;28;20473;-70
2021/05/21 05:16:37;;;;;;;4.03;3.33;;;;;;;;;;5096424;28;20444;-70
2021/05/21 05:19:05;;;;;;;3.80;2.90;;;;;;;;;;5097353;28;20844;-70
2021/05/21 05:21:33;;;;;;;3.60;2.90;;;;;;;;;;5099711;28;20863;-70
2021/05/21 05:24:02;;;;;;;4.30;3.20;;;;;;;;;;5116422;27;20455;-71
2021/05/21 05:26:30;;;;;;;4.87;2.83;;;;;;;;;;5117180;27;20467;-71
2021/05/21 05:28:58;;;;;;;4.23;3.33;;;;;;;;;;5114491;27;20489;-71
2021/05/21 05:31:26;;;;;;;5.20;3.37;;;;;;;;;;5100273;28;20467;-70
2021/05/21 05:33:53;;;;;;;3.97;2.67;;;;;;;;;;5096085;28;20851;-71
2021/05/21 05:36:20;;;;;;;3.93;2.43;;;;;;;;;;5103250;28;20689;-71
2021/05/21 05:38:47;;;;;;;3.70;2.60;;;;;;;;;;5096184;28;20490;-70
2021/05/21 05:41:16;;;;;;;3.83;2.70;;;;;;;;;;5103674;27;20467;-70
2021/05/21 05:43:46;;;;;;;3.50;2.00;;;;;;;;;;5111619;28;20785;-70
2021/05/21 05:46:15;;;;;;;2.97;2.10;;;;;;;;;;5134465;27;20458;-70
2021/05/21 05:48:47;;;;;;;3.37;2.40;;;;;;;;;;5117806;27;20478;-71
2021/05/21 05:51:17;;;;;;;4.90;1.83;;;;;;;;;;5115924;28;20451;-71
2021/05/21 05:53:49;;;;;;;5.00;2.20;;;;;;;;;;5114802;28;20499;-71
2021/05/21 05:56:17;;;;;;;3.57;2.10;;;;;;;;;;5096528;28;20561;-70
2021/05/21 05:58:49;;;;;;;3.27;2.13;;;;;;;;;;5096172;28;20455;-71
2021/05/21 06:01:17;;;;;;;3.70;2.30;;;;;;;;;;5095593;28;20751;-70
2021/05/21 06:03:44;;;;;;;3.70;1.60;;;;;;;;;;5096825;28;20512;-70
2021/05/21 06:06:11;;;;;;;3.10;1.80;;;;;;;;;;5096320;28;20475;-70
2021/05/21 06:08:38;;;;;;;2.10;1.40;;;;;;;;;;5095467;28;20534;-70
2021/05/21 06:11:05;;;;;;;1.80;1.10;;;;;;;;;;5096016;28;20710;-71
2021/05/21 06:13:35;;;;;;;2.50;1.80;;;;;;;;;;5096337;28;20448;-71
2021/05/21 06:16:02;;;;;;;2.83;1.73;;;;;;;;;;5108562;27;20859;-71
2021/05/21 06:18:31;;;;;;;2.13;1.57;;;;;;;;;;5116793;27;20455;-71
2021/05/21 06:21:00;;;;;;;4.70;1.60;;;;;;;;;;5116682;27;20450;-71
2021/05/21 06:23:28;;;;;;;3.03;1.33;;;;;;;;;;5114877;27;20455;-71
2021/05/21 06:26:10;;;;;;;4.03;1.83;;;;;;;;;;5116203;27;20870;-71
2021/05/21 06:28:41;;;;;;;2.80;1.07;;;;;;;;;;5114813;27;20543;-71
2021/05/21 06:31:08;;;;;;;4.80;1.63;;;;;;;;;;5114677;27;20473;-71
2021/05/21 06:33:38;;;;;;;7.03;1.33;;;;;;;;;;5115776;27;20548;-71
2021/05/21 06:36:06;;;;;;;2.00;1.33;;;;;;;;;;5100342;28;20460;-71
2021/05/21 06:38:34;;;;;;;1.80;1.13;;;;;;;;;;5110948;27;20456;-71
2021/05/21 06:41:01;;;;;;;2.83;1.10;;;;;;;;;;5095316;28;20748;-72
2021/05/21 06:43:28;;;;;;;2.10;1.07;;;;;;;;;;5094443;28;20448;-72
2021/05/21 06:45:56;;;;;;;5.30;1.67;;;;;;;;;;5095664;28;20460;-69
2021/05/21 06:48:28;;;;;;;7.60;1.20;;;;;;;;;;5096633;28;20484;-72
2021/05/21 06:51:00;;;;;;;4.23;1.40;;;;;;;;;;5115233;27;20459;-71
2021/05/21 06:53:30;;;;;;;3.87;1.30;;;;;;;;;;5114835;28;20442;-72
2021/05/21 06:55:59;;;;;;;4.70;1.53;;;;;;;;;;5115418;27;20527;-72
2021/05/21 06:58:27;;;;;;;3.60;1.40;;;;;;;;;;5112508;27;20559;-70
2021/05/21 07:00:56;;;;;;;3.13;1.47;;;;;;;;;;5095969;28;20502;-71
2021/05/21 07:03:28;;;;;;;6.00;1.40;;;;;;;;;;5094511;28;20452;-72
2021/05/21 07:05:56;;;;;;;4.10;1.20;;;;;;;;;;5095370;28;20541;-70
2021/05/21 07:08:23;;;;;;;4.90;0.93;;;;;;;;;;5096504;28;20527;-70
2021/05/21 07:10:54;;;;;;;4.27;1.50;;;;;;;;;;5109503;28;20566;-70
2021/05/21 07:13:22;;;;;;;3.20;1.30;;;;;;;;;;5115226;28;20446;-70
2021/05/21 07:15:50;;;;;;;3.60;1.33;;;;;;;;;;5117095;27;20973;-70
2021/05/21 07:18:17;;;;;;;2.73;1.20;;;;;;;;;;5116323;27;20450;-71
2021/05/21 07:20:47;;;;;;;2.73;1.17;;;;;;;;;;5104279;28;20934;-71
2021/05/21 07:23:19;;;;;;;3.70;1.30;;;;;;;;;;5112284;28;20890;-71
2021/05/21 07:25:46;;;;;;;2.87;1.17;;;;;;;;;;5096928;28;20463;-70
2021/05/21 07:28:14;;;;;;;3.03;1.17;;;;;;;;;;5095701;28;20448;-73
2021/05/21 07:31:12;;;;;;;3.00;0.97;;;;;;;;;;5106154;28;20898;-70
2021/05/21 07:33:45;;;;;;;3.90;1.27;;;;;;;;;;5115419;27;20815;-71
2021/05/21 07:36:14;;;;;;;1.97;0.90;;;;;;;;;;5069264;28;876969;-71
2021/05/21 07:38:41;;;;;;;7.47;2.10;;;;;;;;;;5071539;28;20336;-70
2021/05/21 07:41:09;;;;;;;2.60;1.30;;;;;;;;;;5065348;28;20456;-70
2021/05/21 07:43:41;;;;;;;4.30;1.43;;;;;;;;;;5064769;28;20472;-71
2021/05/21 07:46:08;;;;;;;2.40;1.23;;;;;;;;;;5055011;28;20469;-71
2021/05/21 07:48:39;;;;;;;4.10;1.13;;;;;;;;;;5058641;28;20798;-70
2021/05/21 07:51:07;;;;;;;4.77;1.40;;;;;;;;;;5072385;28;20525;-71
2021/05/21 07:53:37;;;;;;;2.57;0.93;;;;;;;;;;5069974;28;20480;-71
2021/05/21 07:56:05;;;;;;;6.07;1.20;;;;;;;;;;5076868;28;20496;-69
2021/05/21 07:58:35;;;;;;;1.70;0.80;;;;;;;;;;5074661;28;20751;-71
2021/05/21 08:01:06;;;;;;;3.13;1.20;;;;;;;;;;5069787;28;20450;-70
2021/05/21 08:03:37;;;;;;;6.50;1.30;;;;;;;;;;5058269;28;20489;-71
2021/05/21 08:06:05;;;;;;;1.90;0.80;;;;;;;;;;5078330;22;20493;-81
2021/05/21 08:08:32;;;;;;;2.53;1.30;;;;;;;;;;5046093;28;20482;-78
2021/05/21 08:11:02;;;;;;;3.13;1.30;;;;;;;;;;5053056;28;20457;-78
2021/05/21 08:13:29;;;;;;;2.90;1.20;;;;;;;;;;5064223;28;20480;-79
2021/05/21 08:16:03;;;;;;;2.90;1.20;;;;;;;;;;5053066;28;20465;-82
2021/05/21 08:18:30;;;;;;;4.20;1.47;;;;;;;;;;5059593;28;20446;-81
2021/05/21 08:20:57;;;;;;;2.17;1.13;;;;;;;;;;5057068;28;20461;-81
2021/05/21 08:23:25;;;;;;;6.07;1.13;;;;;;;;;;5066727;28;20446;-81
2021/05/21 08:25:52;;;;;;;4.13;1.33;;;;;;;;;;5068755;28;20580;-79
2021/05/21 08:28:20;;;;;;;3.33;1.17;;;;;;;;;;5065462;28;20462;-81
2021/05/21 08:30:48;;;;;;;3.03;1.10;;;;;;;;;;5057381;28;20465;-81
2021/05/21 08:33:16;;;;;;;5.43;1.93;;;;;;;;;;5045491;28;20905;-79
2021/05/21 08:35:43;;;;;;;2.33;1.03;;;;;;;;;;5046160;28;20459;-81
2021/05/21 08:38:11;;;;;;;3.53;1.37;;;;;;;;;;5050322;28;20869;-79
2021/05/21 08:40:39;;;;;;;3.60;1.30;;;;;;;;;;5047681;28;20454;-81
2021/05/21 08:43:07;;;;;;;4.00;1.93;;;;;;;;;;5066242;28;20737;-80
2021/05/21 08:45:36;;;;;;;3.30;1.70;;;;;;;;;;5047514;28;20478;-81
2021/05/21 08:48:03;;;;;;;5.30;1.50;;;;;;;;;;5060261;28;20466;-81
2021/05/21 08:50:31;;;;;;;6.80;2.13;;;;;;;;;;5045781;28;20584;-81
2021/05/21 08:52:58;;;;;;;5.20;1.20;;;;;;;;;;5053053;28;20513;-80
2021/05/21 08:55:28;;;;;;;5.80;1.97;;;;;;;;;;5058628;28;21051;-80
2021/05/21 08:58:03;;;;;;;3.73;1.40;;;;;;;;;;5051411;28;20450;-79
2021/05/21 09:00:30;;;;;;;5.67;2.07;;;;;;;;;;5046708;28;20478;-78
2021/05/21 09:02:58;;;;;;;5.90;1.97;;;;;;;;;;5040377;28;20450;-78
2021/05/21 09:05:25;;;;;;;3.70;1.67;;;;;;;;;;5038666;28;20561;-76
2021/05/21 09:07:55;;;;;;;4.13;1.90;;;;;;;;;;5039742;28;20442;-76
2021/05/21 09:10:31;;;;;;;8.10;3.53;;;;;;;;;;5038414;28;20488;-76
2021/05/21 09:12:59;;;;;;;4.67;2.40;;;;;;;;;;5040235;28;20458;-78
2021/05/21 09:15:27;;;;;;;5.47;1.87;;;;;;;;;;5041375;28;20450;-81
2021/05/21 09:17:55;;;;;;;2.80;2.00;;;;;;;;;;5057490;28;20462;-78
2021/05/21 09:20:27;;;;;;;4.90;3.70;;;;;;;;;;5060954;28;20450;-77
2021/05/21 09:23:02;;;;;;;2.80;1.70;;;;;;;;;;5046764;28;20482;-77
2021/05/21 09:25:35;;;;;;;3.63;2.10;;;;;;;;;;5040500;28;20466;-77
2021/05/21 09:28:29;;;;;;;4.20;2.10;;;;;;;;;;5048771;28;20464;-78
2021/05/21 09:31:11;;;;;;;3.30;1.70;;;;;;;;;;5054359;28;20467;-83
2021/05/21 09:33:44;;;;;;;2.10;1.30;;;;;;;;;;5059290;28;20527;-78
2021/05/21 09:36:12;;;;;;;6.73;1.67;;;;;;;;;;5064033;28;20546;-79
2021/05/21 09:38:46;;;;;;;5.57;2.10;;;;;;;;;;5067376;28;20473;-77
2021/05/21 09:41:17;;;;;;;5.80;1.97;;;;;;;;;;5044177;28;21230;-82
2021/05/21 09:43:50;;;;;;;5.70;1.63;;;;;;;;;;5050007;28;20455;-82
2021/05/21 09:46:20;;;;;;;7.60;3.77;;;;;;;;;;5047212;28;20450;-82
2021/05/21 09:48:48;;;;;;;15.50;2.00;;;;;;;;;;5065350;28;20773;-80
2021/05/21 09:51:18;;;;;;;3.30;1.23;;;;;;;;;;5063502;28;21025;-81
2021/05/21 09:53:47;;;;;;;7.17;1.43;;;;;;;;;;5062852;28;20474;-80
2021/05/21 09:56:20;;;;;;;6.17;1.57;;;;;;;;;;5062782;28;20523;-83
2021/05/21 09:58:47;;;;;;;5.83;1.33;;;;;;;;;;5062057;28;20450;-81
2021/05/21 10:01:16;;;;;;;7.33;1.40;;;;;;;;;;5062310;28;20451;-81
2021/05/21 10:03:47;;;;;;;6.13;1.77;;;;;;;;;;5061294;28;20888;-83
2021/05/21 10:06:15;;;;;;;4.53;1.43;;;;;;;;;;5063269;28;20461;-83
2021/05/21 10:08:45;;;;;;;14.00;2.80;;;;;;;;;;5062657;28;20512;-82
2021/05/21 10:11:13;;;;;;;12.10;1.90;;;;;;;;;;5064587;28;20454;-83
2021/05/21 10:13:42;;;;;;;6.50;1.93;;;;;;;;;;5063767;28;20564;-82
2021/05/21 10:16:10;;;;;;;8.13;1.67;;;;;;;;;;5048272;28;20518;-82
2021/05/21 10:18:38;;;;;;;4.17;1.93;;;;;;;;;;5052122;28;20463;-83
2021/05/21 10:21:05;;;;;;;9.10;1.97;;;;;;;;;;5049114;28;20477;-81
2021/05/21 10:23:36;;;;;;;5.03;2.83;;;;;;;;;;5062338;28;20458;-82
2021/05/21 10:26:09;;;;;;;5.93;2.07;;;;;;;;;;5062982;28;20725;-82
2021/05/21 10:28:39;;;;;;;6.57;1.63;;;;;;;;;;5061960;28;20489;-82
2021/05/21 10:31:09;;;;;;;6.80;1.97;;;;;;;;;;5059308;28;20458;-83
2021/05/21 10:33:36;;;;;;;6.33;1.93;;;;;;;;;;5041263;28;20927;-82
2021/05/21 10:36:22;;;;;;;2.50;1.03;;;;;;;;;;5043495;28;20447;-82
2021/05/21 10:39:02;;;;;;;5.23;1.60;;;;;;;;;;5043596;28;20769;-80
2021/05/21 10:41:30;;;;;;;6.83;1.50;;;;;;;;;;5058426;28;20878;-82
2021/05/21 10:43:59;;;;;;;5.87;2.33;;;;;;;;;;5064676;28;20457;-82
2021/05/21 10:46:26;;;;;;;3.27;1.40;;;;;;;;;;5060591;28;20449;-81
2021/05/21 10:48:55;;;;;;;7.97;3.10;;;;;;;;;;5059324;28;20485;-81
2021/05/21 10:51:23;;;;;;;5.43;1.80;;;;;;;;;;5062311;28;20449;-80
2021/05/21 10:54:10;;;;;;;6.87;1.67;;;;;;;;;;5060324;28;20461;-81
2021/05/21 10:56:45;;;;;;;5.17;1.77;;;;;;;;;;5063740;28;20599;-81
2021/05/21 10:59:13;;;;;;;5.33;1.23;;;;;;;;;;5053046;28;20507;-82
2021/05/21 11:01:45;;;;;;;8.00;1.43;;;;;;;;;;5042231;28;20503;-81
2021/05/21 11:04:13;;;;;;;3.70;1.63;;;;;;;;;;5041731;28;20581;-80
2021/05/21 11:06:48;;;;;;;5.10;1.60;;;;;;;;;;5042617;28;20504;-81
2021/05/21 11:09:17;;;;;;;4.27;1.20;;;;;;;;;;5053035;28;20572;-80
2021/05/21 11:12:00;;;;;;;4.23;1.00;;;;;;;;;;5052124;28;20815;-80
2021/05/21 11:14:37;;;;;;;5.03;1.40;;;;;;;;;;5055841;28;20484;-83
2021/05/21 11:17:12;;;;;;;15.40;6.73;;;;;;;;;;5045376;28;20537;-83
2021/05/21 11:19:44;;;;;;;8.13;4.70;;;;;;;;;;5046951;28;20515;-84
2021/05/21 11:22:29;;;;;;;3.77;1.47;;;;;;;;;;5041956;28;20442;-82
2021/05/21 11:25:00;;;;;;;5.03;1.57;;;;;;;;;;5045212;28;20454;-79
2021/05/21 11:27:34;;;;;;;4.33;1.63;;;;;;;;;;5064270;28;20458;-80
2021/05/21 11:30:04;;;;;;;3.10;1.20;;;;;;;;;;5060402;28;20489;-81
2021/05/21 11:32:31;;;;;;;4.23;2.67;;;;;;;;;;5055671;28;20928;-80
2021/05/21 11:34:58;;;;;;;2.60;1.37;;;;;;;;;;5063859;28;20491;-81
2021/05/21 11:37:26;;;;;;;5.43;1.40;;;;;;;;;;5064925;28;20445;-79
2021/05/21 11:39:54;;;;;;;6.03;2.37;;;;;;;;;;5059908;28;20528;-80
2021/05/21 11:42:21;;;;;;;5.03;1.17;;;;;;;;;;5059624;28;20452;-80
2021/05/21 11:44:50;;;;;;;4.77;1.67;;;;;;;;;;5049029;28;20553;-81
2021/05/21 11:47:22;;;;;;;8.17;1.90;;;;;;;;;;5042907;28;20506;-81
2021/05/21 11:49:49;;;;;;;6.53;1.90;;;;;;;;;;5056594;28;20784;-80
2021/05/21 11:52:17;;;;;;;7.83;1.57;;;;;;;;;;5051723;28;20846;-80
2021/05/21 11:54:44;;;;;;;5.30;2.20;;;;;;;;;;5047071;28;20466;-81
2021/05/21 11:57:13;;;;;;;9.40;2.40;;;;;;;;;;5041759;28;20453;-81
2021/05/21 11:59:41;;;;;;;3.80;2.73;;;;;;;;;;5056922;28;20481;-81
2021/05/21 12:02:14;;;;;;;5.53;1.93;;;;;;;;;;5042989;28;20760;-82
2021/05/21 12:04:41;;;;;;;8.13;2.80;;;;;;;;;;5049627;28;20552;-82
2021/05/21 12:07:17;;;;;;;8.07;2.30;;;;;;;;;;5056310;28;20464;-82
2021/05/21 12:09:53;;;;;;;4.37;1.97;;;;;;;;;;5060475;28;20511;-82
2021/05/21 12:12:21;;;;;;;6.37;2.17;;;;;;;;;;5054703;28;20449;-82
2021/05/21 12:14:48;;;;;;;7.30;2.07;;;;;;;;;;5045877;28;20712;-82
2021/05/21 12:17:18;;;;;;;4.70;2.07;;;;;;;;;;5052442;28;20498;-82
2021/05/21 12:19:46;;;;;;;7.40;1.80;;;;;;;;;;5051064;28;20455;-83
2021/05/21 12:22:13;;;;;;;3.10;1.40;;;;;;;;;;5047505;28;20449;-81
2021/05/21 12:24:42;;;;;;;4.00;1.60;;;;;;;;;;5057460;28;20465;-84
2021/05/21 12:27:12;;;;;;;2.97;1.57;;;;;;;;;;5047431;28;20443;-82
2021/05/21 12:29:42;;;;;;;4.60;1.50;;;;;;;;;;5059409;28;20905;-82
2021/05/21 12:32:10;;;;;;;3.60;1.40;;;;;;;;;;5061953;28;20457;-82
2021/05/21 12:34:39;;;;;;;6.23;1.53;;;;;;;;;;5056781;28;20454;-80
2021/05/21 12:37:07;;;;;;;4.07;1.20;;;;;;;;;;5055844;28;20925;-78
2021/05/21 12:39:35;;;;;;;7.97;1.67;;;;;;;;;;5047920;28;20454;-79
2021/05/21 12:42:03;;;;;;;3.90;1.40;;;;;;;;;;5055965;28;20504;-82
2021/05/21 12:44:31;;;;;;;3.40;1.03;;;;;;;;;;5042710;28;20462;-83
2021/05/21 12:46:59;;;;;;;3.30;1.00;;;;;;;;;;5042859;28;20450;-84
2021/05/21 12:49:27;;;;;;;2.67;0.90;;;;;;;;;;5056777;28;20485;-81
2021/05/21 12:51:56;;;;;;;7.20;1.37;;;;;;;;;;5049207;28;20459;-81
2021/05/21 12:54:25;;;;;;;3.20;1.30;;;;;;;;;;5056093;28;20447;-81
2021/05/21 12:56:57;;;;;;;3.70;1.00;;;;;;;;;;5062487;28;20453;-82
2021/05/21 12:59:34;;;;;;;3.50;1.50;;;;;;;;;;5062008;28;20453;-83
2021/05/21 13:02:02;;;;;;;7.53;1.00;;;;;;;;;;5042539;28;20446;-81
2021/05/21 13:04:30;;;;;;;3.80;1.20;;;;;;;;;;5046822;28;20466;-82
2021/05/21 13:06:58;;;;;;;3.83;1.37;;;;;;;;;;5043490;28;20458;-80
2021/05/21 13:13:08;;;;;;;4.77;1.57;;;;;;;;;;5066752;28;20736;-79
2021/05/21 13:15:41;;;;;;;2.37;1.17;;;;;;;;;;5060100;28;20457;-78
2021/05/21 13:18:10;;;;;;;2.60;0.90;;;;;;;;;;5063865;28;20446;-79
2021/05/21 13:20:38;;;;;;;4.30;1.23;;;;;;;;;;5065243;28;20438;-82
2021/05/21 13:23:10;;;;;;;4.53;1.07;;;;;;;;;;5055244;28;21068;-82
2021/05/21 13:25:38;;;;;;;3.80;1.40;;;;;;;;;;5061792;28;20553;-79
2021/05/21 13:28:06;;;;;;;6.03;1.27;;;;;;;;;;5063446;28;20453;-80
2021/05/21 13:30:34;;;;;;;4.83;1.10;;;;;;;;;;5063757;28;20520;-81
2021/05/21 13:33:01;;;;;;;4.60;0.93;;;;;;;;;;5059293;28;20466;-82
2021/05/21 13:35:29;;;;;;;5.20;1.23;;;;;;;;;;5044023;28;20454;-81
2021/05/21 13:37:58;;;;;;;6.33;1.00;;;;;;;;;;5051101;28;20471;-82
2021/05/21 13:40:26;;;;;;;4.50;0.90;;;;;;;;;;5050254;28;20452;-79
2021/05/21 13:42:54;;;;;;;5.30;1.20;;;;;;;;;;5057875;28;20453;-82
2021/05/21 13:45:21;;;;;;;7.27;1.50;;;;;;;;;;5053330;28;20443;-81
2021/05/21 13:47:48;;;;;;;6.00;2.07;;;;;;;;;;5054739;28;20457;-83
2021/05/21 13:50:16;;;;;;;4.13;1.00;;;;;;;;;;5059951;28;20481;-83
2021/05/21 13:52:44;;;;;;;4.27;1.27;;;;;;;;;;5062390;28;20451;-81
2021/05/21 13:55:12;;;;;;;2.97;0.80;;;;;;;;;;5062954;28;20491;-81
2021/05/21 13:57:40;;;;;;;5.90;1.03;;;;;;;;;;5060298;28;20485;-81
2021/05/21 14:00:08;;;;;;;4.20;1.60;;;;;;;;;;5061663;28;20450;-80
2021/05/21 14:02:37;;;;;;;5.97;2.10;;;;;;;;;;5041626;28;20455;-81
2021/05/21 14:05:04;;;;;;;3.20;0.97;;;;;;;;;;5046117;28;20518;-81
2021/05/21 14:07:33;;;;;;;5.43;1.00;;;;;;;;;;5059864;28;20453;-80
2021/05/21 14:10:00;;;;;;;11.77;2.07;;;;;;;;;;5043189;28;20538;-81
2021/05/21 14:12:28;;;;;;;5.63;1.50;;;;;;;;;;5051454;28;20454;-80
2021/05/21 14:14:56;;;;;;;2.27;0.83;;;;;;;;;;5058133;28;20438;-80
2021/05/21 14:17:24;;;;;;;3.50;1.70;;;;;;;;;;5060913;28;20458;-80
2021/05/21 14:19:51;;;;;;;5.17;1.30;;;;;;;;;;5061668;28;20446;-80
2021/05/21 14:22:29;;;;;;;5.03;1.40;;;;;;;;;;5057196;28;20473;-79
2021/05/21 14:24:56;;;;;;;3.93;1.20;;;;;;;;;;5046560;28;20450;-80
2021/05/21 14:27:25;;;;;;;4.60;0.93;;;;;;;;;;5050883;28;20450;-80
2021/05/21 14:29:52;;;;;;;2.23;0.90;;;;;;;;;;5060448;28;20588;-79
2021/05/21 14:32:21;;;;;;;3.93;1.17;;;;;;;;;;5046177;28;20442;-81
2021/05/21 14:34:48;;;;;;;6.40;1.20;;;;;;;;;;5041074;28;20467;-80
2021/05/21 14:37:19;;;;;;;4.37;1.50;;;;;;;;;;5042278;28;20444;-79
2021/05/21 14:39:47;;;;;;;6.30;1.27;;;;;;;;;;5041150;28;20459;-79
2021/05/21 14:42:29;;;;;;;2.93;1.10;;;;;;;;;;5043338;28;20458;-79
2021/05/21 14:44:56;;;;;;;5.53;1.23;;;;;;;;;;5057809;28;20454;-80
2021/05/21 14:47:25;;;;;;;4.87;1.63;;;;;;;;;;5060796;28;21835;-79
2021/05/21 14:49:53;;;;;;;3.27;1.50;;;;;;;;;;5041452;28;20483;-80
2021/05/21 14:52:21;;;;;;;7.60;1.43;;;;;;;;;;5061192;28;20509;-81
2021/05/21 14:54:49;;;;;;;4.50;1.80;;;;;;;;;;5060738;28;20464;-81
2021/05/21 14:57:21;;;;;;;2.57;1.07;;;;;;;;;;5056672;28;20522;-80